< Typhoon 200805 2008 Season Typhoon 200807 >
Typhoon 200806 (FENGSHEN)
General InformationTrack Information on Google MapsDetailed Wind InformationAccess Analytics MapList of All Images || NewsDisaster Info.WeblogTrackbackTyphoon FrontTyphoon ImaginationResourceGoogle EarthGE AnimationAtom FeedGeoJSON
Detalied Best Track (Time Zone = UTC)
Year Month Day Hour Lat. Long. Pressure (hPa) Wind (kt) Class Image Chart
2008 6 17 18 8.4 134.2 1006 0 2 Image Chart
2008 6 18 00 8.6 133.4 1008 0 2 Image Chart
2008 6 18 06 9.0 132.7 1006 0 2 Image Chart
2008 6 18 12 9.3 132.1 1006 0 2 Image Chart
2008 6 18 18 9.5 131.4 1002 0 2 Image Chart
2008 6 19 00 9.7 130.9 1000 35 3 Image Chart
2008 6 19 06 10.0 130.1 994 45 3 Image Chart
2008 6 19 12 10.3 128.9 985 55 4 Image Chart
2008 6 19 18 10.7 127.7 980 65 5 Image Chart
2008 6 20 00 11.0 126.9 970 70 5 Image Chart
2008 6 20 06 11.5 125.4 965 75 5 Image Chart
2008 6 20 12 11.6 124.3 960 75 5 Image Chart
2008 6 20 18 11.7 123.5 955 80 5 Image Chart
2008 6 21 00 11.9 122.7 945 90 5 Image Chart
2008 6 21 06 12.2 122.3 955 85 5 Image Chart
2008 6 21 12 13.1 121.8 965 75 5 Image Chart
2008 6 21 18 14.0 121.6 970 75 5 Image Chart
2008 6 22 00 14.8 121.0 975 75 5 Image Chart
2008 6 22 06 15.4 120.5 980 65 5 Image Chart
2008 6 22 12 15.9 119.6 985 55 4 Image Chart
2008 6 22 18 16.5 118.4 985 50 4 Image Chart
2008 6 23 00 17.1 117.8 985 50 4 Image Chart
2008 6 23 06 17.6 117.1 985 50 4 Image Chart
2008 6 23 12 18.0 116.5 985 50 4 Image Chart
2008 6 23 18 18.6 116.1 985 50 4 Image Chart
2008 6 24 00 19.4 115.9 985 50 4 Image Chart
2008 6 24 06 20.5 115.4 985 50 4 Image Chart
2008 6 24 12 21.1 115.0 985 50 4 Image Chart
2008 6 24 18 22.0 114.6 990 45 3 Image Chart
2008 6 25 00 22.9 113.9 994 40 3 Image Chart
2008 6 25 06 23.6 113.6 998 0 2 Image Chart
2008 6 25 12 24.3 113.4 998 0 2 Image Chart
2008 6 25 18 24.5 113.5 1000 0 2 Image Chart
2008 6 26 00 24.9 113.7 1000 0 2 Image Chart
2008 6 26 06 25.3 114.3 1000 0 2 Image Chart
2008 6 26 12 25.8 114.7 1000 0 2 Image Chart
2008 6 26 18 26.2 115.0 1000 0 2 Image Chart
2008 6 27 00 27.0 115.4 1002 0 2 Image Chart
Japan Meteorological Agency Best Track Data | Correction Date : 2008-08-04
< Typhoon 200805 2008 Season Typhoon 200807 >

Help